ケープタウン国際空港の過去48時間の天気

ケープタウン国際空港 (Cape Town, Cape Town International Airport)

現在時刻: 12/13 16:27 SAST (12/13 14:27 UTC) 以下の時間は現地時間です。

過去48時間のMETAR気象情報
時間 風向 風速(m/s) 視程 気温(℃) 湿度(%) 気圧(hPa) 天気現象
13 16:00 8 10km以上 22 43 1020
13 15:00 8 10km以上 22 43 1020
13 14:00 6 10km以上 23 44 1021
13 13:00 7 10km以上 22 46 1021
13 12:00 南南西 5 10km以上 21 46 1021
13 11:00 5 10km以上 20 53 1021
13 10:00 南南東 3 10km以上 21 53 1021
13 09:28 南南東 3 10km以上 20 60 1021
13 09:00 不定 2 10km以上 18 68 1021
13 08:00 不定 1 10km以上 17 77 1021
13 07:01 1 10km以上 16 82 1021 弱い雨
13 06:00 1 10km以上 13 88 1020
13 05:00 北東 2 10km以上 14 82 1019
13 04:00 北東 2 10km以上 14 82 1019
13 03:00 北北西 2 10km以上 15 82 1019
13 02:00 北北東 1 10km以上 15 72 1020
13 01:00 北北東 2 10km以上 16 72 1020
13 00:00 南南西 2 10km以上 17 68 1020
12 23:00 不定 1 10km以上 17 68 1020
12 22:00 西南西 3 10km以上 19 64 1020
FACT 131400Z 17016KT 140V200 9999 FEW040 22/09 Q1020 NOSIG
FACT 131300Z 17015KT 140V200 9999 FEW040 22/09 Q1020 NOSIG
FACT 131200Z 17011KT 140V200 9999 FEW040 23/10 Q1021 NOSIG
FACT 131100Z 17014KT 140V200 9999 SCT040 22/10 Q1021 NOSIG
FACT 131000Z 20010KT 160V230 CAVOK 21/09 Q1021 NOSIG
FACT 130900Z 18009KT 160V220 9999 BKN040 20/10 Q1021 NOSIG
FACT 130800Z 15006KT 110V220 9999 BKN040 21/11 Q1021 NOSIG
FACT 130728Z 16006KT 130V210 9999 BKN040 20/12 Q1021 NOSIG
FACT 130700Z VRB03KT 9999 BKN040 18/12 Q1021 NOSIG
FACT 130600Z VRB02KT 9999 BKN040 17/13 Q1021 NOSIG
FACT 130501Z 09002KT 9999 -RA BKN035 16/13 Q1021 NOSIG
FACT 130400Z 09001KT 9999 BKN045 13/11 Q1020 NOSIG
FACT 130300Z 05004KT 9999 SCT045 14/11 Q1019 NOSIG
FACT 130200Z 04004KT 020V080 9999 FEW050 14/11 Q1019 NOSIG
FACT 130100Z 34003KT 9999 FEW040 15/12 Q1019 NOSIG
FACT 130000Z 03002KT 9999 FEW050 15/10 Q1020 NOSIG
FACT 122300Z 03003KT CAVOK 16/11 Q1020 NOSIG
FACT 122200Z 20003KT CAVOK 17/11 Q1020 NOSIG
FACT 122100Z VRB02KT CAVOK 17/11 Q1020 NOSIG
FACT 122000Z 24005KT 9999 FEW040 19/12 Q1020 NOSIG